Chicago, IL (60611)

7:39 PM CST on February 06, 2016 (GMT -0600)
Chicago-Midway | | Change Station
CLOSE
Current Station
Airport
Location: Chicago Midway,
Elevation: 623 ft
Nearby Weather Stations

Elev 623 ft 41.78 °N, 87.76 °W | Updated 46 minutes ago

Clear
Clear
38 °F
Feels Like 34 °F
N
6
Wind Variable Wind from South

Today
High -- | Low -- °F
--% Chance of Precip.
Yesterday
High -- | Low -- °F
Precip. -- in
Pressure 30.18 in
Visibility 10.0 miles
Clouds Clear
Windchill 34 °F
Dew Point 27 °F
Humidity 65%
Rainfall 0.00 in
Snow Depth Not available.
6:58 AM 5:11 PM
Waning Crescent, 3% visible
METAR KMDW 070053Z 17005KT 10SM CLR 03/M03 A3014 RMK AO2 SLP219 T00331028
Pressure 30.18 in
Visibility 10.0 miles
Clouds Clear
Windchill 34 °F
Dew Point 27 °F
Humidity 65%
Rainfall 0.00 in
Snow Depth Not available.
6:58 AM 5:11 PM
Waning Crescent, 3% visible
METAR KMDW 070053Z 17005KT 10SM CLR 03/M03 A3014 RMK AO2 SLP219 T00331028

10-Day Weather Forecast

Almanac

Astronomy

Feb. 06, 2016 Rise Set
Actual Time
Civil Twilight
Nautical Twilight
Astronomical Twilight
Moon
Length of Visible Light
Length of Day
Tomorrow will be .
, % of the Moon is Illuminated

Today's Extremes

State Highs State Lows

Community

WunderPhotos

Upload Photos

1,891,120 photos uploaded!

WunderBlog® & News

Nearby

Air Quality

  Air Quality AQ Index Pollutant
Not available.

Snow Depth

Station Depth Elevation

Earthquake Activity

City Distance Mag. Time & Date
Minimum magnitude displayed is 2.5.

Coastal Water Temperatures

Place Temperature

Stations

Nearby Weather Stations

Station Location Temp. Windchill Dew Point Humidity Wind Precip. Elev Updated Type
                   

Watches & Warnings

There are currently no watches in effect.